sensor_id;sensor_type;location;lat;lon;timestamp;temperature;humidity
71563;DHT22;59391;52.504;13.438;2023-05-10T00:02:09;15.80;41.80
71563;DHT22;59391;52.504;13.438;2023-05-10T00:04:34;15.70;41.90
71563;DHT22;59391;52.504;13.438;2023-05-10T00:07:00;15.70;41.90
71563;DHT22;59391;52.504;13.438;2023-05-10T00:09:26;15.60;42.20
71563;DHT22;59391;52.504;13.438;2023-05-10T00:11:52;15.60;42.30
71563;DHT22;59391;52.504;13.438;2023-05-10T00:14:17;15.60;42.30
71563;DHT22;59391;52.504;13.438;2023-05-10T00:16:43;15.60;42.30
71563;DHT22;59391;52.504;13.438;2023-05-10T00:19:09;15.50;42.40
71563;DHT22;59391;52.504;13.438;2023-05-10T00:21:34;15.50;42.50
71563;DHT22;59391;52.504;13.438;2023-05-10T00:24:00;15.50;42.50
71563;DHT22;59391;52.504;13.438;2023-05-10T00:26:26;15.50;42.60
71563;DHT22;59391;52.504;13.438;2023-05-10T00:28:51;15.40;42.60
71563;DHT22;59391;52.504;13.438;2023-05-10T00:31:17;15.40;42.60
71563;DHT22;59391;52.504;13.438;2023-05-10T00:33:42;15.40;42.40
71563;DHT22;59391;52.504;13.438;2023-05-10T00:36:08;15.40;42.30
71563;DHT22;59391;52.504;13.438;2023-05-10T00:38:34;15.40;42.40
71563;DHT22;59391;52.504;13.438;2023-05-10T00:41:00;15.30;42.40
71563;DHT22;59391;52.504;13.438;2023-05-10T00:43:25;15.30;42.50
71563;DHT22;59391;52.504;13.438;2023-05-10T00:45:51;15.20;42.50
71563;DHT22;59391;52.504;13.438;2023-05-10T00:48:18;15.20;42.50
71563;DHT22;59391;52.504;13.438;2023-05-10T00:50:44;15.10;42.60
71563;DHT22;59391;52.504;13.438;2023-05-10T00:53:10;15.10;42.70
71563;DHT22;59391;52.504;13.438;2023-05-10T00:55:36;15.10;42.80
71563;DHT22;59391;52.504;13.438;2023-05-10T00:58:02;15.00;42.80
71563;DHT22;59391;52.504;13.438;2023-05-10T01:00:28;14.90;43.00
71563;DHT22;59391;52.504;13.438;2023-05-10T01:02:54;14.90;43.10
71563;DHT22;59391;52.504;13.438;2023-05-10T01:05:20;14.90;43.20
71563;DHT22;59391;52.504;13.438;2023-05-10T01:07:46;14.80;43.30
71563;DHT22;59391;52.504;13.438;2023-05-10T01:10:12;14.80;43.40
71563;DHT22;59391;52.504;13.438;2023-05-10T01:12:40;14.80;43.50
71563;DHT22;59391;52.504;13.438;2023-05-10T01:15:08;14.70;43.60
71563;DHT22;59391;52.504;13.438;2023-05-10T01:17:38;14.70;43.70
71563;DHT22;59391;52.504;13.438;2023-05-10T01:20:06;14.70;43.80
71563;DHT22;59391;52.504;13.438;2023-05-10T01:32:04;14.50;44.20
71563;DHT22;59391;52.504;13.438;2023-05-10T01:37:18;14.40;44.40
71563;DHT22;59391;52.504;13.438;2023-05-10T01:40:00;14.40;44.50
71563;DHT22;59391;52.504;13.438;2023-05-10T01:42:43;14.30;44.60
71563;DHT22;59391;52.504;13.438;2023-05-10T01:45:45;14.30;44.70
71563;DHT22;59391;52.504;13.438;2023-05-10T01:48:16;14.20;44.80
71563;DHT22;59391;52.504;13.438;2023-05-10T01:50:45;14.20;44.90
71563;DHT22;59391;52.504;13.438;2023-05-10T01:53:12;14.20;45.10
71563;DHT22;59391;52.504;13.438;2023-05-10T01:55:46;14.10;45.20
71563;DHT22;59391;52.504;13.438;2023-05-10T01:58:25;14.10;45.30
71563;DHT22;59391;52.504;13.438;2023-05-10T02:00:55;14.10;45.40
71563;DHT22;59391;52.504;13.438;2023-05-10T02:03:24;14.10;45.40
71563;DHT22;59391;52.504;13.438;2023-05-10T02:05:54;14.00;45.40
71563;DHT22;59391;52.504;13.438;2023-05-10T02:08:22;14.00;45.60
71563;DHT22;59391;52.504;13.438;2023-05-10T02:10:51;14.00;45.70
71563;DHT22;59391;52.504;13.438;2023-05-10T02:13:19;14.00;45.70
71563;DHT22;59391;52.504;13.438;2023-05-10T02:15:50;13.90;45.80
71563;DHT22;59391;52.504;13.438;2023-05-10T02:18:18;13.90;45.90
71563;DHT22;59391;52.504;13.438;2023-05-10T02:20:45;13.90;45.80
71563;DHT22;59391;52.504;13.438;2023-05-10T02:23:13;13.90;46.00
71563;DHT22;59391;52.504;13.438;2023-05-10T02:25:43;13.80;46.10
71563;DHT22;59391;52.504;13.438;2023-05-10T02:28:10;13.80;46.20
71563;DHT22;59391;52.504;13.438;2023-05-10T02:30:38;13.80;46.30
71563;DHT22;59391;52.504;13.438;2023-05-10T02:33:05;13.80;46.30
71563;DHT22;59391;52.504;13.438;2023-05-10T02:35:32;13.70;46.30
71563;DHT22;59391;52.504;13.438;2023-05-10T02:38:00;13.70;46.40
71563;DHT22;59391;52.504;13.438;2023-05-10T02:40:27;13.70;46.30
71563;DHT22;59391;52.504;13.438;2023-05-10T02:42:56;13.70;46.40
71563;DHT22;59391;52.504;13.438;2023-05-10T02:45:26;13.70;46.40
71563;DHT22;59391;52.504;13.438;2023-05-10T02:47:55;13.60;46.50
71563;DHT22;59391;52.504;13.438;2023-05-10T02:50:22;13.60;46.50
71563;DHT22;59391;52.504;13.438;2023-05-10T02:52:56;13.60;46.60
71563;DHT22;59391;52.504;13.438;2023-05-10T02:55:32;13.50;46.50
71563;DHT22;59391;52.504;13.438;2023-05-10T02:58:03;13.50;46.60
71563;DHT22;59391;52.504;13.438;2023-05-10T03:00:29;13.50;46.60
71563;DHT22;59391;52.504;13.438;2023-05-10T03:02:55;13.40;46.60
71563;DHT22;59391;52.504;13.438;2023-05-10T03:05:21;13.40;46.80
71563;DHT22;59391;52.504;13.438;2023-05-10T03:07:47;13.40;47.00
71563;DHT22;59391;52.504;13.438;2023-05-10T03:10:13;13.30;46.90
71563;DHT22;59391;52.504;13.438;2023-05-10T03:13:01;13.30;47.00
71563;DHT22;59391;52.504;13.438;2023-05-10T03:15:55;13.30;47.20
71563;DHT22;59391;52.504;13.438;2023-05-10T03:18:44;13.30;47.00
71563;DHT22;59391;52.504;13.438;2023-05-10T03:21:17;13.30;47.20
71563;DHT22;59391;52.504;13.438;2023-05-10T03:23:51;13.30;47.20
71563;DHT22;59391;52.504;13.438;2023-05-10T03:26:26;13.20;47.10
71563;DHT22;59391;52.504;13.438;2023-05-10T03:28:53;13.20;47.10
71563;DHT22;59391;52.504;13.438;2023-05-10T03:31:20;13.20;47.20
71563;DHT22;59391;52.504;13.438;2023-05-10T03:33:47;13.20;47.30
71563;DHT22;59391;52.504;13.438;2023-05-10T03:36:13;13.20;47.30
71563;DHT22;59391;52.504;13.438;2023-05-10T03:38:39;13.20;47.20
71563;DHT22;59391;52.504;13.438;2023-05-10T03:41:05;13.20;47.20
71563;DHT22;59391;52.504;13.438;2023-05-10T03:43:30;13.10;47.20
71563;DHT22;59391;52.504;13.438;2023-05-10T03:45:56;13.20;47.20
71563;DHT22;59391;52.504;13.438;2023-05-10T03:48:21;13.20;47.30
71563;DHT22;59391;52.504;13.438;2023-05-10T03:50:47;13.20;47.20
71563;DHT22;59391;52.504;13.438;2023-05-10T03:53:14;13.20;47.20
71563;DHT22;59391;52.504;13.438;2023-05-10T03:55:40;13.20;47.20
71563;DHT22;59391;52.504;13.438;2023-05-10T03:58:06;13.20;47.30
71563;DHT22;59391;52.504;13.438;2023-05-10T04:00:32;13.20;47.30
71563;DHT22;59391;52.504;13.438;2023-05-10T04:02:58;13.20;47.30
71563;DHT22;59391;52.504;13.438;2023-05-10T04:05:26;13.20;47.40
71563;DHT22;59391;52.504;13.438;2023-05-10T04:07:51;13.20;47.20
71563;DHT22;59391;52.504;13.438;2023-05-10T04:10:17;13.20;47.40
71563;DHT22;59391;52.504;13.438;2023-05-10T04:12:43;13.20;47.40
71563;DHT22;59391;52.504;13.438;2023-05-10T04:15:08;13.20;47.40
71563;DHT22;59391;52.504;13.438;2023-05-10T04:17:34;13.20;47.50
71563;DHT22;59391;52.504;13.438;2023-05-10T04:20:00;13.20;47.60
71563;DHT22;59391;52.504;13.438;2023-05-10T04:22:25;13.20;47.50
71563;DHT22;59391;52.504;13.438;2023-05-10T04:24:52;13.20;47.40
71563;DHT22;59391;52.504;13.438;2023-05-10T04:27:18;13.20;47.60
71563;DHT22;59391;52.504;13.438;2023-05-10T04:29:44;13.20;47.50
71563;DHT22;59391;52.504;13.438;2023-05-10T04:32:09;13.20;47.60
71563;DHT22;59391;52.504;13.438;2023-05-10T04:34:36;13.20;47.70
71563;DHT22;59391;52.504;13.438;2023-05-10T04:37:01;13.30;47.60
71563;DHT22;59391;52.504;13.438;2023-05-10T04:39:27;13.30;47.60
71563;DHT22;59391;52.504;13.438;2023-05-10T04:41:53;13.30;47.50
71563;DHT22;59391;52.504;13.438;2023-05-10T04:44:18;13.30;47.60
71563;DHT22;59391;52.504;13.438;2023-05-10T04:46:44;13.30;47.60
71563;DHT22;59391;52.504;13.438;2023-05-10T04:49:09;13.30;47.60
71563;DHT22;59391;52.504;13.438;2023-05-10T04:51:35;13.30;47.70
71563;DHT22;59391;52.504;13.438;2023-05-10T04:54:01;13.40;47.40
71563;DHT22;59391;52.504;13.438;2023-05-10T04:56:26;13.40;47.70
71563;DHT22;59391;52.504;13.438;2023-05-10T04:58:52;13.40;47.40
71563;DHT22;59391;52.504;13.438;2023-05-10T05:01:17;13.40;47.50
71563;DHT22;59391;52.504;13.438;2023-05-10T05:03:43;13.50;47.50
71563;DHT22;59391;52.504;13.438;2023-05-10T05:06:09;13.50;47.80
71563;DHT22;59391;52.504;13.438;2023-05-10T05:08:35;13.60;47.60
71563;DHT22;59391;52.504;13.438;2023-05-10T05:11:00;13.60;47.30
71563;DHT22;59391;52.504;13.438;2023-05-10T05:13:26;13.60;46.80
71563;DHT22;59391;52.504;13.438;2023-05-10T05:15:51;13.60;46.60
71563;DHT22;59391;52.504;13.438;2023-05-10T05:18:17;13.70;47.00
71563;DHT22;59391;52.504;13.438;2023-05-10T05:20:43;13.70;46.80
71563;DHT22;59391;52.504;13.438;2023-05-10T05:23:08;13.70;46.80
71563;DHT22;59391;52.504;13.438;2023-05-10T05:25:34;13.80;46.60
71563;DHT22;59391;52.504;13.438;2023-05-10T05:28:00;13.80;46.40
71563;DHT22;59391;52.504;13.438;2023-05-10T05:30:26;13.90;46.50
71563;DHT22;59391;52.504;13.438;2023-05-10T05:32:52;13.90;46.40
71563;DHT22;59391;52.504;13.438;2023-05-10T05:35:18;14.00;46.30
71563;DHT22;59391;52.504;13.438;2023-05-10T05:37:43;14.00;46.20
71563;DHT22;59391;52.504;13.438;2023-05-10T05:40:12;14.10;45.90
71563;DHT22;59391;52.504;13.438;2023-05-10T05:42:39;14.10;46.00
71563;DHT22;59391;52.504;13.438;2023-05-10T05:45:05;14.20;46.00
71563;DHT22;59391;52.504;13.438;2023-05-10T05:47:31;14.30;46.00
71563;DHT22;59391;52.504;13.438;2023-05-10T05:49:57;14.30;45.80
71563;DHT22;59391;52.504;13.438;2023-05-10T05:52:22;14.40;45.40
71563;DHT22;59391;52.504;13.438;2023-05-10T05:54:48;14.50;45.50
71563;DHT22;59391;52.504;13.438;2023-05-10T05:57:14;14.50;45.20
71563;DHT22;59391;52.504;13.438;2023-05-10T05:59:39;14.60;45.10
71563;DHT22;59391;52.504;13.438;2023-05-10T06:02:09;14.70;44.90
71563;DHT22;59391;52.504;13.438;2023-05-10T06:04:35;14.80;45.00
71563;DHT22;59391;52.504;13.438;2023-05-10T06:07:00;14.80;44.50
71563;DHT22;59391;52.504;13.438;2023-05-10T06:09:26;14.90;44.40
71563;DHT22;59391;52.504;13.438;2023-05-10T06:11:52;14.90;44.30
71563;DHT22;59391;52.504;13.438;2023-05-10T06:14:17;15.00;44.10
71563;DHT22;59391;52.504;13.438;2023-05-10T06:16:45;15.10;44.00
71563;DHT22;59391;52.504;13.438;2023-05-10T06:19:11;15.10;43.90
71563;DHT22;59391;52.504;13.438;2023-05-10T06:21:37;15.20;43.70
71563;DHT22;59391;52.504;13.438;2023-05-10T06:24:03;15.30;43.60
71563;DHT22;59391;52.504;13.438;2023-05-10T06:26:29;15.30;43.50
71563;DHT22;59391;52.504;13.438;2023-05-10T06:28:55;15.40;43.40
71563;DHT22;59391;52.504;13.438;2023-05-10T06:31:20;15.50;43.50
71563;DHT22;59391;52.504;13.438;2023-05-10T06:33:46;15.60;43.00
71563;DHT22;59391;52.504;13.438;2023-05-10T06:36:12;15.60;42.90
71563;DHT22;59391;52.504;13.438;2023-05-10T06:38:38;15.60;42.90
71563;DHT22;59391;52.504;13.438;2023-05-10T06:41:04;15.60;43.00
71563;DHT22;59391;52.504;13.438;2023-05-10T06:43:30;15.70;42.90
71563;DHT22;59391;52.504;13.438;2023-05-10T06:45:55;15.80;43.10
71563;DHT22;59391;52.504;13.438;2023-05-10T06:48:21;15.80;43.00
71563;DHT22;59391;52.504;13.438;2023-05-10T06:50:47;15.90;43.00
71563;DHT22;59391;52.504;13.438;2023-05-10T06:53:12;15.90;42.90
71563;DHT22;59391;52.504;13.438;2023-05-10T06:55:39;16.00;42.80
71563;DHT22;59391;52.504;13.438;2023-05-10T06:58:05;16.10;42.70
71563;DHT22;59391;52.504;13.438;2023-05-10T07:00:33;16.10;42.40
71563;DHT22;59391;52.504;13.438;2023-05-10T07:03:02;16.20;42.40
71563;DHT22;59391;52.504;13.438;2023-05-10T07:05:27;16.30;42.50
71563;DHT22;59391;52.504;13.438;2023-05-10T07:07:54;16.30;42.20
71563;DHT22;59391;52.504;13.438;2023-05-10T07:10:20;16.40;42.10
71563;DHT22;59391;52.504;13.438;2023-05-10T07:12:46;16.40;42.00
71563;DHT22;59391;52.504;13.438;2023-05-10T07:15:11;16.50;42.10
71563;DHT22;59391;52.504;13.438;2023-05-10T07:17:40;16.60;42.00
71563;DHT22;59391;52.504;13.438;2023-05-10T07:20:06;16.60;42.00
71563;DHT22;59391;52.504;13.438;2023-05-10T07:22:32;16.70;41.40
71563;DHT22;59391;52.504;13.438;2023-05-10T07:24:58;16.70;41.20
71563;DHT22;59391;52.504;13.438;2023-05-10T07:27:23;16.70;41.50
71563;DHT22;59391;52.504;13.438;2023-05-10T07:29:49;16.80;41.50
71563;DHT22;59391;52.504;13.438;2023-05-10T07:32:15;16.90;41.50
71563;DHT22;59391;52.504;13.438;2023-05-10T07:34:41;17.00;41.10
71563;DHT22;59391;52.504;13.438;2023-05-10T07:37:07;17.00;41.10
71563;DHT22;59391;52.504;13.438;2023-05-10T07:39:32;17.10;41.10
71563;DHT22;59391;52.504;13.438;2023-05-10T07:41:58;17.10;40.80
71563;DHT22;59391;52.504;13.438;2023-05-10T07:44:24;17.20;41.00
71563;DHT22;59391;52.504;13.438;2023-05-10T07:46:50;17.30;40.60
71563;DHT22;59391;52.504;13.438;2023-05-10T07:49:16;17.40;40.90
71563;DHT22;59391;52.504;13.438;2023-05-10T07:51:42;17.50;40.90
71563;DHT22;59391;52.504;13.438;2023-05-10T07:54:07;17.50;41.10
71563;DHT22;59391;52.504;13.438;2023-05-10T07:56:33;17.70;40.50
71563;DHT22;59391;52.504;13.438;2023-05-10T07:59:00;17.70;40.30
71563;DHT22;59391;52.504;13.438;2023-05-10T08:01:30;17.80;40.20
71563;DHT22;59391;52.504;13.438;2023-05-10T08:03:57;17.90;40.00
71563;DHT22;59391;52.504;13.438;2023-05-10T08:06:23;18.00;40.00
71563;DHT22;59391;52.504;13.438;2023-05-10T08:08:49;18.10;40.40
71563;DHT22;59391;52.504;13.438;2023-05-10T08:11:19;18.20;39.70
71563;DHT22;59391;52.504;13.438;2023-05-10T08:13:46;18.30;39.60
71563;DHT22;59391;52.504;13.438;2023-05-10T08:16:13;18.40;39.60
71563;DHT22;59391;52.504;13.438;2023-05-10T08:18:39;18.50;39.40
71563;DHT22;59391;52.504;13.438;2023-05-10T08:21:05;18.70;39.40
71563;DHT22;59391;52.504;13.438;2023-05-10T08:23:31;18.80;39.20
71563;DHT22;59391;52.504;13.438;2023-05-10T08:25:57;18.90;39.10
71563;DHT22;59391;52.504;13.438;2023-05-10T08:28:26;19.00;38.90
71563;DHT22;59391;52.504;13.438;2023-05-10T08:30:52;19.20;38.40
71563;DHT22;59391;52.504;13.438;2023-05-10T08:33:18;19.30;38.20
71563;DHT22;59391;52.504;13.438;2023-05-10T08:35:44;19.40;38.30
71563;DHT22;59391;52.504;13.438;2023-05-10T08:38:10;19.50;38.40
71563;DHT22;59391;52.504;13.438;2023-05-10T08:40:37;19.70;38.30
71563;DHT22;59391;52.504;13.438;2023-05-10T08:43:07;19.90;37.90
71563;DHT22;59391;52.504;13.438;2023-05-10T08:45:38;20.10;37.50
71563;DHT22;59391;52.504;13.438;2023-05-10T08:48:08;20.40;37.00
71563;DHT22;59391;52.504;13.438;2023-05-10T08:50:39;20.80;36.80
71563;DHT22;59391;52.504;13.438;2023-05-10T08:53:13;21.10;35.90
71563;DHT22;59391;52.504;13.438;2023-05-10T08:55:41;21.40;35.50
71563;DHT22;59391;52.504;13.438;2023-05-10T08:58:08;21.70;35.30
71563;DHT22;59391;52.504;13.438;2023-05-10T09:00:35;22.00;34.60
71563;DHT22;59391;52.504;13.438;2023-05-10T09:03:05;22.30;34.20
71563;DHT22;59391;52.504;13.438;2023-05-10T09:05:31;22.60;34.10
71563;DHT22;59391;52.504;13.438;2023-05-10T09:07:57;22.90;33.60
71563;DHT22;59391;52.504;13.438;2023-05-10T09:10:26;23.10;32.50
71563;DHT22;59391;52.504;13.438;2023-05-10T09:12:53;23.40;32.60
71563;DHT22;59391;52.504;13.438;2023-05-10T09:15:21;23.60;32.10
71563;DHT22;59391;52.504;13.438;2023-05-10T09:17:48;23.80;31.60
71563;DHT22;59391;52.504;13.438;2023-05-10T09:20:14;24.00;31.80
71563;DHT22;59391;52.504;13.438;2023-05-10T09:22:40;24.20;31.70
71563;DHT22;59391;52.504;13.438;2023-05-10T09:25:07;24.30;30.80
71563;DHT22;59391;52.504;13.438;2023-05-10T09:27:36;24.40;31.00
71563;DHT22;59391;52.504;13.438;2023-05-10T09:30:04;24.50;30.40
71563;DHT22;59391;52.504;13.438;2023-05-10T09:32:41;24.70;30.80
71563;DHT22;59391;52.504;13.438;2023-05-10T09:35:16;24.80;30.50
71563;DHT22;59391;52.504;13.438;2023-05-10T09:37:48;24.80;30.00
71563;DHT22;59391;52.504;13.438;2023-05-10T09:40:17;24.80;29.90
71563;DHT22;59391;52.504;13.438;2023-05-10T09:42:55;24.90;30.20
71563;DHT22;59391;52.504;13.438;2023-05-10T09:45:24;24.90;30.30
71563;DHT22;59391;52.504;13.438;2023-05-10T09:47:51;25.00;30.80
71563;DHT22;59391;52.504;13.438;2023-05-10T09:50:18;25.20;30.20
71563;DHT22;59391;52.504;13.438;2023-05-10T09:52:54;25.30;29.60
71563;DHT22;59391;52.504;13.438;2023-05-10T09:58:06;25.50;29.00
71563;DHT22;59391;52.504;13.438;2023-05-10T10:00:37;25.50;29.10
71563;DHT22;59391;52.504;13.438;2023-05-10T10:03:04;25.40;29.30
71563;DHT22;59391;52.504;13.438;2023-05-10T10:05:35;25.40;29.50
71563;DHT22;59391;52.504;13.438;2023-05-10T10:08:03;25.30;29.00
71563;DHT22;59391;52.504;13.438;2023-05-10T10:10:31;25.30;29.40
71563;DHT22;59391;52.504;13.438;2023-05-10T10:12:58;25.30;29.30
71563;DHT22;59391;52.504;13.438;2023-05-10T10:15:24;25.40;29.70
71563;DHT22;59391;52.504;13.438;2023-05-10T10:17:51;25.40;29.60
71563;DHT22;59391;52.504;13.438;2023-05-10T10:20:19;25.60;29.10
71563;DHT22;59391;52.504;13.438;2023-05-10T10:22:46;25.70;29.20
71563;DHT22;59391;52.504;13.438;2023-05-10T10:25:15;25.90;28.70
71563;DHT22;59391;52.504;13.438;2023-05-10T10:30:34;26.20;28.70
71563;DHT22;59391;52.504;13.438;2023-05-10T10:35:58;26.50;28.40
71563;DHT22;59391;52.504;13.438;2023-05-10T10:38:25;26.60;28.30
71563;DHT22;59391;52.504;13.438;2023-05-10T10:41:09;26.70;27.90
71563;DHT22;59391;52.504;13.438;2023-05-10T10:43:37;26.80;27.90
71563;DHT22;59391;52.504;13.438;2023-05-10T10:46:14;27.00;27.70
71563;DHT22;59391;52.504;13.438;2023-05-10T10:48:47;27.10;27.20
71563;DHT22;59391;52.504;13.438;2023-05-10T10:51:16;27.20;27.10
71563;DHT22;59391;52.504;13.438;2023-05-10T10:53:43;27.20;27.10
71563;DHT22;59391;52.504;13.438;2023-05-10T10:56:11;27.20;27.10
71563;DHT22;59391;52.504;13.438;2023-05-10T10:58:39;27.20;27.30
71563;DHT22;59391;52.504;13.438;2023-05-10T11:01:14;27.30;27.80
71563;DHT22;59391;52.504;13.438;2023-05-10T11:06:32;27.80;27.60
71563;DHT22;59391;52.504;13.438;2023-05-10T11:08:59;27.90;26.60
71563;DHT22;59391;52.504;13.438;2023-05-10T11:11:31;28.10;26.70
71563;DHT22;59391;52.504;13.438;2023-05-10T11:14:04;28.30;27.00
71563;DHT22;59391;52.504;13.438;2023-05-10T11:16:44;28.40;26.30
71563;DHT22;59391;52.504;13.438;2023-05-10T11:19:14;28.40;26.00
71563;DHT22;59391;52.504;13.438;2023-05-10T11:22:11;28.40;25.90
71563;DHT22;59391;52.504;13.438;2023-05-10T11:24:56;28.30;26.60
71563;DHT22;59391;52.504;13.438;2023-05-10T11:27:23;28.40;26.40
71563;DHT22;59391;52.504;13.438;2023-05-10T11:29:52;28.40;26.30
71563;DHT22;59391;52.504;13.438;2023-05-10T11:32:19;28.40;25.70
71563;DHT22;59391;52.504;13.438;2023-05-10T11:34:47;28.50;26.20
71563;DHT22;59391;52.504;13.438;2023-05-10T11:37:13;28.60;25.90
71563;DHT22;59391;52.504;13.438;2023-05-10T11:39:45;28.70;26.10
71563;DHT22;59391;52.504;13.438;2023-05-10T11:42:14;28.80;26.00
71563;DHT22;59391;52.504;13.438;2023-05-10T11:44:40;29.00;26.00
71563;DHT22;59391;52.504;13.438;2023-05-10T11:47:07;29.10;25.40
71563;DHT22;59391;52.504;13.438;2023-05-10T11:49:32;29.30;25.40
71563;DHT22;59391;52.504;13.438;2023-05-10T11:52:05;29.40;24.70
71563;DHT22;59391;52.504;13.438;2023-05-10T11:54:36;29.60;24.50
71563;DHT22;59391;52.504;13.438;2023-05-10T11:57:02;29.60;24.40
71563;DHT22;59391;52.504;13.438;2023-05-10T11:59:28;29.60;24.70
71563;DHT22;59391;52.504;13.438;2023-05-10T12:01:54;29.70;25.00
71563;DHT22;59391;52.504;13.438;2023-05-10T12:04:20;29.70;24.10
71563;DHT22;59391;52.504;13.438;2023-05-10T12:06:46;29.80;24.20
71563;DHT22;59391;52.504;13.438;2023-05-10T12:09:11;29.80;23.80
71563;DHT22;59391;52.504;13.438;2023-05-10T12:11:39;29.80;23.90
71563;DHT22;59391;52.504;13.438;2023-05-10T12:14:06;29.60;23.60
71563;DHT22;59391;52.504;13.438;2023-05-10T12:16:32;29.50;23.80
71563;DHT22;59391;52.504;13.438;2023-05-10T12:18:59;29.50;24.20
71563;DHT22;59391;52.504;13.438;2023-05-10T12:21:27;29.50;24.30
71563;DHT22;59391;52.504;13.438;2023-05-10T12:23:58;29.40;24.20
71563;DHT22;59391;52.504;13.438;2023-05-10T12:26:25;29.30;24.70
71563;DHT22;59391;52.504;13.438;2023-05-10T12:28:53;29.20;23.90
71563;DHT22;59391;52.504;13.438;2023-05-10T12:31:20;29.00;23.90
71563;DHT22;59391;52.504;13.438;2023-05-10T12:33:46;28.90;24.30
71563;DHT22;59391;52.504;13.438;2023-05-10T12:36:14;28.90;24.60
71563;DHT22;59391;52.504;13.438;2023-05-10T12:38:42;28.80;24.60
71563;DHT22;59391;52.504;13.438;2023-05-10T12:41:12;28.70;25.10
71563;DHT22;59391;52.504;13.438;2023-05-10T12:43:40;28.70;25.40
71563;DHT22;59391;52.504;13.438;2023-05-10T12:46:13;28.70;25.50
71563;DHT22;59391;52.504;13.438;2023-05-10T12:48:41;28.60;25.50
71563;DHT22;59391;52.504;13.438;2023-05-10T12:51:09;28.60;25.50
71563;DHT22;59391;52.504;13.438;2023-05-10T12:53:38;28.60;25.60
71563;DHT22;59391;52.504;13.438;2023-05-10T12:56:04;28.60;25.20
71563;DHT22;59391;52.504;13.438;2023-05-10T12:58:30;28.50;24.80
71563;DHT22;59391;52.504;13.438;2023-05-10T13:00:56;28.50;24.60
71563;DHT22;59391;52.504;13.438;2023-05-10T13:03:22;28.40;25.20
71563;DHT22;59391;52.504;13.438;2023-05-10T13:05:48;28.30;25.70
71563;DHT22;59391;52.504;13.438;2023-05-10T13:08:14;28.30;25.40
71563;DHT22;59391;52.504;13.438;2023-05-10T13:10:39;28.30;25.70
71563;DHT22;59391;52.504;13.438;2023-05-10T13:13:06;28.30;25.70
71563;DHT22;59391;52.504;13.438;2023-05-10T13:15:32;28.30;25.90
71563;DHT22;59391;52.504;13.438;2023-05-10T13:17:58;28.30;25.00
71563;DHT22;59391;52.504;13.438;2023-05-10T13:20:24;28.40;25.00
71563;DHT22;59391;52.504;13.438;2023-05-10T13:22:50;28.40;24.70
71563;DHT22;59391;52.504;13.438;2023-05-10T13:25:16;28.30;24.30
71563;DHT22;59391;52.504;13.438;2023-05-10T13:27:42;28.30;24.90
71563;DHT22;59391;52.504;13.438;2023-05-10T13:30:08;28.30;25.50
71563;DHT22;59391;52.504;13.438;2023-05-10T13:32:35;28.30;25.60
71563;DHT22;59391;52.504;13.438;2023-05-10T13:35:01;28.30;25.40
71563;DHT22;59391;52.504;13.438;2023-05-10T13:37:29;28.30;25.70
71563;DHT22;59391;52.504;13.438;2023-05-10T13:39:55;28.30;25.10
71563;DHT22;59391;52.504;13.438;2023-05-10T13:42:22;28.20;25.20
71563;DHT22;59391;52.504;13.438;2023-05-10T13:44:51;28.30;25.90
71563;DHT22;59391;52.504;13.438;2023-05-10T13:47:17;28.30;24.70
71563;DHT22;59391;52.504;13.438;2023-05-10T13:49:43;28.20;25.10
71563;DHT22;59391;52.504;13.438;2023-05-10T13:52:09;28.20;25.10
71563;DHT22;59391;52.504;13.438;2023-05-10T13:54:36;28.10;24.90
71563;DHT22;59391;52.504;13.438;2023-05-10T13:57:02;28.10;25.20
71563;DHT22;59391;52.504;13.438;2023-05-10T13:59:28;27.90;25.50
71563;DHT22;59391;52.504;13.438;2023-05-10T14:01:54;27.80;25.30
71563;DHT22;59391;52.504;13.438;2023-05-10T14:04:20;27.70;25.30
71563;DHT22;59391;52.504;13.438;2023-05-10T14:06:46;27.70;25.50
71563;DHT22;59391;52.504;13.438;2023-05-10T14:09:11;27.50;25.20
71563;DHT22;59391;52.504;13.438;2023-05-10T14:11:38;27.40;25.30
71563;DHT22;59391;52.504;13.438;2023-05-10T14:14:07;27.30;25.20
71563;DHT22;59391;52.504;13.438;2023-05-10T14:16:32;27.30;25.40
71563;DHT22;59391;52.504;13.438;2023-05-10T14:18:58;27.30;25.40
71563;DHT22;59391;52.504;13.438;2023-05-10T14:21:24;27.30;25.60
71563;DHT22;59391;52.504;13.438;2023-05-10T14:23:49;27.20;25.90
71563;DHT22;59391;52.504;13.438;2023-05-10T14:26:15;27.20;25.60
71563;DHT22;59391;52.504;13.438;2023-05-10T14:28:41;27.20;25.40
71563;DHT22;59391;52.504;13.438;2023-05-10T14:31:07;27.20;25.30
71563;DHT22;59391;52.504;13.438;2023-05-10T14:33:33;27.20;24.90
71563;DHT22;59391;52.504;13.438;2023-05-10T14:35:58;27.20;24.60
71563;DHT22;59391;52.504;13.438;2023-05-10T14:38:25;27.20;24.50
71563;DHT22;59391;52.504;13.438;2023-05-10T14:40:51;27.20;25.00
71563;DHT22;59391;52.504;13.438;2023-05-10T14:43:17;27.20;25.10
71563;DHT22;59391;52.504;13.438;2023-05-10T14:45:43;27.30;24.80
71563;DHT22;59391;52.504;13.438;2023-05-10T14:48:08;27.30;25.20
71563;DHT22;59391;52.504;13.438;2023-05-10T14:50:37;27.40;24.90
71563;DHT22;59391;52.504;13.438;2023-05-10T14:53:03;27.40;25.10
71563;DHT22;59391;52.504;13.438;2023-05-10T14:55:29;27.50;25.20
71563;DHT22;59391;52.504;13.438;2023-05-10T14:57:55;27.50;25.00
71563;DHT22;59391;52.504;13.438;2023-05-10T15:00:21;27.60;25.00
71563;DHT22;59391;52.504;13.438;2023-05-10T15:02:47;27.60;24.70
71563;DHT22;59391;52.504;13.438;2023-05-10T15:05:13;27.50;25.00
71563;DHT22;59391;52.504;13.438;2023-05-10T15:07:39;27.40;25.20
71563;DHT22;59391;52.504;13.438;2023-05-10T15:10:05;27.30;25.30
71563;DHT22;59391;52.504;13.438;2023-05-10T15:12:31;27.20;25.80
71563;DHT22;59391;52.504;13.438;2023-05-10T15:14:57;27.10;26.10
71563;DHT22;59391;52.504;13.438;2023-05-10T15:17:23;27.10;25.80
71563;DHT22;59391;52.504;13.438;2023-05-10T15:19:48;27.00;25.80
71563;DHT22;59391;52.504;13.438;2023-05-10T15:22:14;26.90;25.80
71563;DHT22;59391;52.504;13.438;2023-05-10T15:24:40;26.70;26.00
71563;DHT22;59391;52.504;13.438;2023-05-10T15:27:06;26.60;26.10
71563;DHT22;59391;52.504;13.438;2023-05-10T15:29:32;26.60;26.30
71563;DHT22;59391;52.504;13.438;2023-05-10T15:31:57;26.50;25.80
71563;DHT22;59391;52.504;13.438;2023-05-10T15:34:23;26.50;26.00
71563;DHT22;59391;52.504;13.438;2023-05-10T15:36:49;26.40;26.10
71563;DHT22;59391;52.504;13.438;2023-05-10T15:39:14;26.40;26.40
71563;DHT22;59391;52.504;13.438;2023-05-10T15:41:40;26.30;26.70